createdAt,value
2016-08-09T00:00:06.664Z,66
2016-08-09T00:00:17.914Z,66
2016-08-09T00:00:29.154Z,66.1
2016-08-09T00:00:39.662Z,66
2016-08-09T00:00:50.908Z,66.1
2016-08-09T00:01:02.150Z,66.1
2016-08-09T00:01:13.388Z,66
2016-08-09T00:01:24.635Z,66
2016-08-09T00:01:35.868Z,66
2016-08-09T00:01:59.509Z,66.4
2016-08-09T00:02:10.753Z,66.3
2016-08-09T00:02:21.996Z,66.3
2016-08-09T00:02:33.236Z,66.3
2016-08-09T00:02:44.476Z,65.9
2016-08-09T00:02:55.714Z,66.3
2016-08-09T00:03:06.988Z,66.3
2016-08-09T00:03:17.493Z,66.3
2016-08-09T00:03:28.743Z,66.3
2016-08-09T00:03:39.988Z,66.5
2016-08-09T00:03:51.232Z,66.4
2016-08-09T00:04:02.476Z,66.3
2016-08-09T00:04:13.714Z,66.3
2016-08-09T00:04:24.956Z,66.4
2016-08-09T00:04:36.192Z,66.3
2016-08-09T00:04:47.438Z,66.3
2016-08-09T00:04:58.691Z,66.3
2016-08-09T00:05:09.202Z,66.3
2016-08-09T00:05:20.440Z,66.3
2016-08-09T00:05:31.685Z,66.1
2016-08-09T00:05:42.219Z,66.1
2016-08-09T00:05:53.464Z,66.3
2016-08-09T00:06:04.704Z,66.2
2016-08-09T00:06:15.208Z,66.2
2016-08-09T00:06:26.452Z,66.4
2016-08-09T00:06:36.964Z,66.2
2016-08-09T00:06:48.199Z,66.2
2016-08-09T00:06:59.442Z,66.3
2016-08-09T00:07:10.684Z,66.2
2016-08-09T00:07:21.927Z,66.4
2016-08-09T00:07:33.176Z,66.3
2016-08-09T00:07:44.417Z,66.4
2016-08-09T00:07:55.654Z,66.4
2016-08-09T00:08:06.899Z,66.1
2016-08-09T00:08:18.136Z,66.1
2016-08-09T00:08:29.378Z,66.3
2016-08-09T00:08:40.620Z,66.3
2016-08-09T00:08:51.131Z,66.6
2016-08-09T00:09:02.375Z,66.2
2016-08-09T00:09:13.618Z,66.4
2016-08-09T00:09:24.129Z,66.2
2016-08-09T00:09:35.376Z,66.3
2016-08-09T00:09:46.620Z,66.3
2016-08-09T00:09:57.857Z,66
2016-08-09T00:10:08.369Z,66
2016-08-09T00:10:19.611Z,66.4
2016-08-09T00:10:30.123Z,66
2016-08-09T00:10:41.363Z,66.1
2016-08-09T00:10:52.605Z,66.2
2016-08-09T00:11:03.847Z,66
2016-08-09T00:11:15.082Z,66.3
2016-08-09T00:11:26.325Z,66.3
2016-08-09T00:11:36.838Z,66.3
2016-08-09T00:11:48.076Z,66.2
2016-08-09T00:11:59.315Z,66
2016-08-09T00:12:10.563Z,66
2016-08-09T00:12:21.079Z,66.3
2016-08-09T00:12:32.324Z,66.3
2016-08-09T00:12:43.559Z,66
2016-08-09T00:12:54.799Z,66.1
2016-08-09T00:13:06.042Z,66.4
2016-08-09T00:13:17.280Z,66.3
2016-08-09T00:13:28.517Z,66.4
2016-08-09T00:13:39.764Z,66.3
2016-08-09T00:13:51.005Z,66.3
2016-08-09T00:14:02.245Z,66.1
2016-08-09T00:14:12.760Z,65.9
2016-08-09T00:14:23.270Z,65.9
2016-08-09T00:14:34.516Z,66.3
2016-08-09T00:14:45.757Z,65.9
2016-08-09T00:14:56.270Z,66.3
2016-08-09T00:15:07.509Z,66.3
2016-08-09T00:15:18.754Z,66.1
2016-08-09T00:15:29.991Z,65.9
2016-08-09T00:15:41.232Z,66.3
2016-08-09T00:15:52.472Z,66.3
2016-08-09T00:16:03.767Z,66.2
2016-08-09T00:16:15.005Z,66.3
2016-08-09T00:16:26.242Z,65.8
2016-08-09T00:16:37.484Z,66.1
2016-08-09T00:17:00.670Z,66
2016-08-09T00:17:11.914Z,66.1
2016-08-09T00:17:23.152Z,65.9
2016-08-09T00:17:34.394Z,65.9
2016-08-09T00:17:45.631Z,66.3
2016-08-09T00:17:56.874Z,66.2
2016-08-09T00:18:08.116Z,66.2
2016-08-09T00:18:19.359Z,66.3
2016-08-09T00:18:30.612Z,66.1
2016-08-09T00:18:41.850Z,65.9
2016-08-09T00:18:53.087Z,66
2016-08-09T00:19:04.324Z,66.3
2016-08-09T00:19:15.570Z,66.2
2016-08-09T00:19:26.804Z,66.4
2016-08-09T00:19:38.047Z,66.3
2016-08-09T00:20:00.813Z,66.2
2016-08-09T00:20:12.057Z,66.3
2016-08-09T00:20:22.564Z,66.2
2016-08-09T00:20:33.799Z,66
2016-08-09T00:20:45.040Z,66.4
2016-08-09T00:20:56.285Z,66
2016-08-09T00:21:07.535Z,66.3
2016-08-09T00:21:18.774Z,66.3
2016-08-09T00:21:30.010Z,66.1
2016-08-09T00:21:41.252Z,66.3
2016-08-09T00:21:52.498Z,66.2
2016-08-09T00:22:03.740Z,66.2
2016-08-09T00:22:14.982Z,66.1
2016-08-09T00:22:26.224Z,66.3
2016-08-09T00:22:37.465Z,66.2
2016-08-09T00:22:48.712Z,66.2
2016-08-09T00:22:59.954Z,66.3
2016-08-09T00:23:11.195Z,66.1
2016-08-09T00:23:22.444Z,66
2016-08-09T00:23:33.680Z,66.1
2016-08-09T00:23:44.926Z,66
2016-08-09T00:23:56.170Z,66.1
2016-08-09T00:24:06.683Z,66.2
2016-08-09T00:24:17.921Z,66.1
2016-08-09T00:24:29.166Z,66
2016-08-09T00:24:40.410Z,66
2016-08-09T00:24:51.652Z,66.1
2016-08-09T00:25:02.891Z,65.9
2016-08-09T00:25:14.135Z,66.1
2016-08-09T00:25:24.647Z,66
2016-08-09T00:25:35.897Z,66
2016-08-09T00:25:47.137Z,66.2
2016-08-09T00:25:58.383Z,66.1
2016-08-09T00:26:09.621Z,66
2016-08-09T00:26:20.131Z,66
2016-08-09T00:26:31.373Z,66.2
2016-08-09T00:26:42.614Z,66
2016-08-09T00:26:53.857Z,66
2016-08-09T00:27:05.113Z,65.9
2016-08-09T00:27:16.349Z,66.1
2016-08-09T00:27:27.586Z,66.2
2016-08-09T00:27:38.826Z,66.3
2016-08-09T00:27:50.070Z,66.3
2016-08-09T00:28:01.308Z,66.3
2016-08-09T00:28:11.820Z,66.2
2016-08-09T00:28:23.058Z,66.3
2016-08-09T00:28:34.301Z,65.9
2016-08-09T00:28:44.811Z,66
2016-08-09T00:28:56.052Z,66.1
2016-08-09T00:29:07.293Z,66.2
2016-08-09T00:29:18.533Z,66.2
2016-08-09T00:29:29.770Z,66.1
2016-08-09T00:29:41.014Z,66
2016-08-09T00:29:52.255Z,66
2016-08-09T00:30:03.496Z,66.1
2016-08-09T00:30:14.738Z,66.2
2016-08-09T00:30:25.977Z,66.1
2016-08-09T00:30:37.231Z,66.1
2016-08-09T00:30:48.462Z,66.4
2016-08-09T00:30:59.702Z,66.1
2016-08-09T00:31:10.941Z,66
2016-08-09T00:31:22.183Z,66.3
2016-08-09T00:31:33.431Z,66.2
2016-08-09T00:31:44.675Z,66.2
2016-08-09T00:32:07.592Z,66.3
2016-08-09T00:32:18.837Z,66.2
2016-08-09T00:32:30.075Z,66.2
2016-08-09T00:32:41.320Z,66.3
2016-08-09T00:32:51.822Z,66.3
2016-08-09T00:33:03.059Z,66.3
2016-08-09T00:33:14.304Z,66.3
2016-08-09T00:33:25.542Z,66.3
2016-08-09T00:33:36.784Z,66.3
2016-08-09T00:33:48.025Z,66
2016-08-09T00:33:59.266Z,66
2016-08-09T00:34:10.506Z,66.4
2016-08-09T00:34:21.741Z,66.2
2016-08-09T00:34:32.981Z,66.1
2016-08-09T00:34:43.491Z,66.3
2016-08-09T00:34:53.281Z,66.1
2016-08-09T00:35:04.523Z,66.5
2016-08-09T00:35:15.764Z,66.3
2016-08-09T00:35:27.003Z,66.3
2016-08-09T00:35:38.242Z,66.2
2016-08-09T00:35:49.481Z,66.3
2016-08-09T00:36:00.720Z,66.4
2016-08-09T00:36:11.960Z,66.2
2016-08-09T00:36:23.203Z,66.3
2016-08-09T00:36:33.712Z,66.3
2016-08-09T00:36:44.960Z,66.1
2016-08-09T00:36:56.199Z,66.3
2016-08-09T00:37:07.446Z,66.3
2016-08-09T00:37:18.682Z,66.2
2016-08-09T00:37:29.923Z,66.5
2016-08-09T00:37:41.167Z,66.4
2016-08-09T00:37:52.417Z,66.2
2016-08-09T00:38:02.932Z,66.2
2016-08-09T00:38:13.446Z,66.3
2016-08-09T00:38:26.481Z,66.2
2016-08-09T00:38:37.718Z,66.4
2016-08-09T00:38:48.962Z,66.2
2016-08-09T00:39:00.203Z,66.2
2016-08-09T00:39:11.451Z,66.2
2016-08-09T00:39:22.689Z,66.4
2016-08-09T00:39:33.928Z,66.3
2016-08-09T00:39:45.170Z,66.3
2016-08-09T00:39:54.964Z,66.4
2016-08-09T00:40:06.206Z,66.3
2016-08-09T00:40:17.450Z,66.2
2016-08-09T00:40:28.701Z,66.4
2016-08-09T00:40:39.941Z,66.3
2016-08-09T00:40:51.187Z,66.2
2016-08-09T00:41:02.427Z,66.2
2016-08-09T00:41:13.664Z,66.4
2016-08-09T00:41:24.905Z,66.2
2016-08-09T00:41:36.149Z,66.2
2016-08-09T00:41:47.385Z,66.3
2016-08-09T00:41:58.626Z,66.1
2016-08-09T00:42:09.150Z,66.2
2016-08-09T00:42:20.385Z,66.4
2016-08-09T00:42:31.628Z,66.1
2016-08-09T00:42:43.924Z,66.4
2016-08-09T00:42:55.164Z,66.4
2016-08-09T00:43:06.407Z,66.2
2016-08-09T00:43:17.642Z,66.5
2016-08-09T00:43:28.881Z,66.2
2016-08-09T00:43:40.130Z,66.3
2016-08-09T00:43:51.373Z,66.2
2016-08-09T00:44:02.610Z,66.3
2016-08-09T00:44:13.851Z,66.3
2016-08-09T00:44:25.093Z,66.4
2016-08-09T00:44:35.600Z,66.5
2016-08-09T00:44:46.843Z,66.7
2016-08-09T00:44:58.085Z,66.6
2016-08-09T00:45:09.335Z,66.3
2016-08-09T00:45:20.569Z,66.2
2016-08-09T00:45:31.081Z,66.6
2016-08-09T00:45:42.323Z,66.5
2016-08-09T00:45:53.569Z,66.1
2016-08-09T00:46:04.811Z,66.2
2016-08-09T00:46:16.051Z,66.3
2016-08-09T00:46:27.284Z,66.1
2016-08-09T00:46:38.527Z,66.4
2016-08-09T00:46:49.771Z,66.3
2016-08-09T00:47:12.239Z,66.3
2016-08-09T00:47:22.755Z,66.3
2016-08-09T00:47:33.996Z,66.1
2016-08-09T00:47:45.243Z,66.3
2016-08-09T00:47:56.489Z,66.1
2016-08-09T00:48:07.723Z,66.1
2016-08-09T00:48:18.966Z,66.7
2016-08-09T00:48:29.468Z,66.5
2016-08-09T00:48:40.712Z,66.2
2016-08-09T00:48:51.953Z,66.6
2016-08-09T00:49:03.191Z,66.5
2016-08-09T00:49:13.702Z,66.6
2016-08-09T00:49:24.218Z,66.3
2016-08-09T00:49:35.465Z,66.5
2016-08-09T00:49:45.974Z,66.6
2016-08-09T00:49:57.211Z,66.3
2016-08-09T00:50:08.453Z,66.7
2016-08-09T00:50:19.696Z,66.5
2016-08-09T00:50:30.213Z,66.8
2016-08-09T00:50:41.452Z,66.9
2016-08-09T00:50:52.699Z,66.3
2016-08-09T00:51:03.938Z,66.6
2016-08-09T00:51:15.182Z,66.7
2016-08-09T00:51:26.424Z,66.3
2016-08-09T00:51:37.667Z,66.7
2016-08-09T00:51:48.907Z,66.3
2016-08-09T00:52:00.152Z,66.6
2016-08-09T00:52:09.947Z,66.6
2016-08-09T00:52:21.178Z,66.3
2016-08-09T00:52:32.422Z,66.5
2016-08-09T00:52:42.203Z,66.8
2016-08-09T00:52:53.443Z,66.6
2016-08-09T00:53:04.679Z,66.3
2016-08-09T00:53:15.920Z,66.9
2016-08-09T00:53:27.158Z,66.6
2016-08-09T00:53:37.673Z,66.6
2016-08-09T00:53:47.452Z,66.6
2016-08-09T00:53:58.695Z,66.3
2016-08-09T00:54:09.938Z,67
2016-08-09T00:54:21.184Z,66.9
2016-08-09T00:54:32.426Z,66.7
2016-08-09T00:54:43.665Z,67
2016-08-09T00:54:54.907Z,66.9
2016-08-09T00:55:06.150Z,66.9
2016-08-09T00:55:17.392Z,66.9
2016-08-09T00:55:27.905Z,66.6
2016-08-09T00:55:39.145Z,66.8
2016-08-09T00:55:50.386Z,66.9
2016-08-09T00:56:01.627Z,66.8
2016-08-09T00:56:12.863Z,67.1
2016-08-09T00:56:24.104Z,66.6
2016-08-09T00:56:35.341Z,66.8
2016-08-09T00:56:45.861Z,66.4
2016-08-09T00:56:57.101Z,66.1
2016-08-09T00:57:08.341Z,66.2
2016-08-09T00:57:19.582Z,66.1
2016-08-09T00:57:30.817Z,66.3
2016-08-09T00:57:42.057Z,66.3
2016-08-09T00:57:53.295Z,66.3
2016-08-09T00:58:04.537Z,66.2
2016-08-09T00:58:15.774Z,66.4
2016-08-09T00:58:26.288Z,66.6
2016-08-09T00:58:37.531Z,67
2016-08-09T00:58:48.770Z,66.9
2016-08-09T00:59:00.010Z,67
2016-08-09T00:59:11.252Z,66.7
2016-08-09T00:59:21.759Z,66.3
2016-08-09T00:59:32.997Z,66.4
2016-08-09T00:59:44.232Z,66.7
2016-08-09T00:59:55.472Z,66.4
2016-08-09T01:00:06.727Z,67.1
2016-08-09T01:00:17.973Z,67
2016-08-09T01:00:28.482Z,66.9
2016-08-09T01:00:39.720Z,67
2016-08-09T01:00:50.959Z,66.9
2016-08-09T01:01:02.197Z,66.9
2016-08-09T01:01:13.440Z,67
2016-08-09T01:01:24.677Z,66.9
2016-08-09T01:01:35.917Z,66.7
2016-08-09T01:01:47.163Z,66.6
2016-08-09T01:01:58.399Z,66.5
2016-08-09T01:02:09.641Z,66.2
2016-08-09T01:02:32.851Z,66.7
2016-08-09T01:02:43.365Z,66.4
2016-08-09T01:02:54.614Z,66.3
2016-08-09T01:03:05.848Z,66.4
2016-08-09T01:03:17.090Z,66.2
2016-08-09T01:03:28.331Z,66.3
2016-08-09T01:03:39.573Z,66.2
2016-08-09T01:03:50.823Z,66.1
2016-08-09T01:04:02.061Z,66.1
2016-08-09T01:04:13.306Z,66.2
2016-08-09T01:04:24.552Z,66.3
2016-08-09T01:04:35.795Z,66.4
2016-08-09T01:04:46.307Z,66.2
2016-08-09T01:04:57.553Z,66.2
2016-08-09T01:05:08.791Z,66.3
2016-08-09T01:05:20.033Z,66.4
2016-08-09T01:05:31.276Z,66.3
2016-08-09T01:05:42.517Z,66.2
2016-08-09T01:05:53.763Z,66.3
2016-08-09T01:06:05.000Z,66.3
2016-08-09T01:06:16.242Z,66.3
2016-08-09T01:06:27.483Z,66.3
2016-08-09T01:06:38.721Z,66.2
2016-08-09T01:06:49.966Z,66.3
2016-08-09T01:07:00.475Z,66.3
2016-08-09T01:07:11.720Z,66.3
2016-08-09T01:07:22.964Z,66
2016-08-09T01:07:33.482Z,66.3
2016-08-09T01:07:44.722Z,66.2
2016-08-09T01:07:55.229Z,66.2
2016-08-09T01:08:06.474Z,65.9
2016-08-09T01:08:17.718Z,66.1
2016-08-09T01:08:28.958Z,66.4
2016-08-09T01:08:40.200Z,66.2
2016-08-09T01:08:51.439Z,66.1
2016-08-09T01:09:01.954Z,65.9
2016-08-09T01:09:13.192Z,66.2
2016-08-09T01:09:24.432Z,66.3
2016-08-09T01:09:35.683Z,66.1
2016-08-09T01:09:46.918Z,66.1
2016-08-09T01:09:58.156Z,66.6
2016-08-09T01:10:09.404Z,66.3
2016-08-09T01:10:20.642Z,66.4
2016-08-09T01:10:31.884Z,66.3
2016-08-09T01:10:43.121Z,66.1
2016-08-09T01:10:53.631Z,65.9
2016-08-09T01:11:04.868Z,65.9
2016-08-09T01:11:16.120Z,66.1
2016-08-09T01:11:27.361Z,66
2016-08-09T01:11:38.605Z,65.9
2016-08-09T01:11:49.114Z,65.9
2016-08-09T01:12:00.357Z,66.3
2016-08-09T01:12:11.596Z,66.2
2016-08-09T01:12:22.835Z,66.3
2016-08-09T01:12:34.080Z,66
2016-08-09T01:12:45.325Z,66
2016-08-09T01:12:56.564Z,66.1
2016-08-09T01:13:07.812Z,66.1
2016-08-09T01:13:19.060Z,66.3
2016-08-09T01:13:30.301Z,66.3
2016-08-09T01:13:41.545Z,66.3
2016-08-09T01:13:52.061Z,66.3
2016-08-09T01:14:03.308Z,66
2016-08-09T01:14:14.546Z,66
2016-08-09T01:14:25.787Z,65.9
2016-08-09T01:14:37.026Z,66.2
2016-08-09T01:14:48.263Z,66.2
2016-08-09T01:14:59.504Z,66.1
2016-08-09T01:15:10.749Z,66.2
2016-08-09T01:15:21.982Z,66.3
2016-08-09T01:15:33.224Z,66.3
2016-08-09T01:15:43.737Z,66.2
2016-08-09T01:15:54.976Z,66
2016-08-09T01:16:06.265Z,66
2016-08-09T01:16:17.504Z,66.1
2016-08-09T01:16:28.757Z,66
2016-08-09T01:16:39.993Z,66.1
2016-08-09T01:16:51.235Z,66.2
2016-08-09T01:17:02.477Z,66
2016-08-09T01:17:24.661Z,66.1
2016-08-09T01:17:35.902Z,66
2016-08-09T01:17:47.139Z,66.1
2016-08-09T01:17:58.384Z,66.3
2016-08-09T01:18:09.626Z,65.7
2016-08-09T01:18:20.866Z,66.3
2016-08-09T01:18:32.115Z,66
2016-08-09T01:18:43.350Z,66.1
2016-08-09T01:18:54.589Z,66.3
2016-08-09T01:19:05.827Z,66.2
2016-08-09T01:19:17.080Z,66.1
2016-08-09T01:19:28.316Z,66.3
2016-08-09T01:19:39.567Z,66.4
2016-08-09T01:19:50.814Z,66.3
2016-08-09T01:20:01.321Z,66.3
2016-08-09T01:20:12.560Z,65.9
2016-08-09T01:20:23.804Z,65.9
2016-08-09T01:20:35.043Z,65.9
2016-08-09T01:20:46.283Z,65.9
2016-08-09T01:20:57.521Z,66.2
2016-08-09T01:21:08.764Z,66.1
2016-08-09T01:21:20.000Z,66.3
2016-08-09T01:21:30.514Z,66.2
2016-08-09T01:21:41.753Z,66
2016-08-09T01:21:53.002Z,66.3
2016-08-09T01:22:04.291Z,65.7
2016-08-09T01:22:15.531Z,65.9
2016-08-09T01:22:26.772Z,65.7
2016-08-09T01:22:38.020Z,66.3
2016-08-09T01:22:49.257Z,66.2
2016-08-09T01:23:00.496Z,66.2
2016-08-09T01:23:11.737Z,66.2
2016-08-09T01:23:22.977Z,66.2
2016-08-09T01:23:34.217Z,66.2
2016-08-09T01:23:45.457Z,65.8
2016-08-09T01:23:55.968Z,65.9
2016-08-09T01:24:07.208Z,65.6
2016-08-09T01:24:17.725Z,65.8
2016-08-09T01:24:28.967Z,65.5
2016-08-09T01:24:40.203Z,65.8
2016-08-09T01:24:50.719Z,65.5
2016-08-09T01:25:01.964Z,65.5
2016-08-09T01:25:13.202Z,65.6
2016-08-09T01:25:24.442Z,65.7
2016-08-09T01:25:35.682Z,65.8
2016-08-09T01:25:46.918Z,66
2016-08-09T01:25:57.434Z,66.3
2016-08-09T01:26:08.673Z,65.6
2016-08-09T01:26:19.911Z,66.4
2016-08-09T01:26:31.155Z,66.1
2016-08-09T01:26:42.393Z,66
2016-08-09T01:26:53.633Z,65.9
2016-08-09T01:27:04.874Z,66.1
2016-08-09T01:27:16.114Z,66.2
2016-08-09T01:27:27.352Z,66.1
2016-08-09T01:27:38.588Z,66.1
2016-08-09T01:27:49.834Z,66.1
2016-08-09T01:28:01.068Z,66.3
2016-08-09T01:28:11.588Z,66.2
2016-08-09T01:28:22.825Z,66.3
2016-08-09T01:28:33.334Z,66.1
2016-08-09T01:28:44.572Z,66
2016-08-09T01:28:55.813Z,66
2016-08-09T01:29:07.053Z,66
2016-08-09T01:29:17.576Z,66.1
2016-08-09T01:29:28.082Z,66.3
2016-08-09T01:29:39.321Z,66.3
2016-08-09T01:29:50.561Z,66.3
2016-08-09T01:30:01.799Z,66.3
2016-08-09T01:30:13.037Z,66.2
2016-08-09T01:30:23.551Z,66.2
2016-08-09T01:30:34.790Z,66.4
2016-08-09T01:30:45.296Z,66.3
2016-08-09T01:30:56.536Z,66.4
2016-08-09T01:31:07.777Z,66.3
2016-08-09T01:31:19.014Z,66.3
2016-08-09T01:31:30.252Z,66.1
2016-08-09T01:31:41.491Z,66.1
2016-08-09T01:31:51.999Z,66.2
2016-08-09T01:32:03.244Z,66.3
2016-08-09T01:32:25.705Z,66.4
2016-08-09T01:32:36.943Z,66.5
2016-08-09T01:32:48.185Z,66.5
2016-08-09T01:32:59.420Z,66.4
2016-08-09T01:33:10.659Z,66.3
2016-08-09T01:33:21.905Z,66.3
2016-08-09T01:33:32.411Z,66.4
2016-08-09T01:33:43.658Z,66.7
2016-08-09T01:33:54.904Z,66.7
2016-08-09T01:34:06.147Z,66.8
2016-08-09T01:34:17.384Z,66.7
2016-08-09T01:34:28.624Z,66.6
2016-08-09T01:34:39.864Z,66.6
2016-08-09T01:34:51.108Z,66.6
2016-08-09T01:35:02.352Z,67
2016-08-09T01:35:13.594Z,66.9
2016-08-09T01:35:24.834Z,66.9
2016-08-09T01:35:36.077Z,67
2016-08-09T01:35:47.320Z,67
2016-08-09T01:35:58.559Z,66.7
2016-08-09T01:36:09.802Z,66.5
2016-08-09T01:36:21.040Z,66.4
2016-08-09T01:36:32.282Z,66.2
2016-08-09T01:36:42.794Z,66.7
2016-08-09T01:36:54.038Z,66.3
2016-08-09T01:37:05.273Z,66.7
2016-08-09T01:37:16.512Z,66.4
2016-08-09T01:37:27.758Z,66.7
2016-08-09T01:37:38.999Z,66.3
2016-08-09T01:37:50.253Z,66.4
2016-08-09T01:38:01.483Z,66.6
2016-08-09T01:38:11.988Z,66.4
2016-08-09T01:38:23.230Z,66.6
2016-08-09T01:38:33.740Z,66.4
2016-08-09T01:38:44.983Z,66.5
2016-08-09T01:38:56.222Z,66.3
2016-08-09T01:39:07.462Z,66.9
2016-08-09T01:39:18.707Z,67.1
2016-08-09T01:39:29.216Z,66.9
2016-08-09T01:39:40.459Z,66.9
2016-08-09T01:39:50.980Z,66.9
2016-08-09T01:40:02.218Z,66.8
2016-08-09T01:40:13.463Z,66.9
2016-08-09T01:40:23.979Z,66.9
2016-08-09T01:40:35.213Z,66.8
2016-08-09T01:40:46.455Z,66.9
2016-08-09T01:40:57.692Z,66.7
2016-08-09T01:41:08.934Z,66.8
2016-08-09T01:41:20.172Z,66.7
2016-08-09T01:41:31.416Z,67
2016-08-09T01:41:42.656Z,66.7
2016-08-09T01:41:53.893Z,66.2
2016-08-09T01:42:05.138Z,66.7
2016-08-09T01:42:16.379Z,66.1
2016-08-09T01:42:26.171Z,66.3
2016-08-09T01:42:37.468Z,66.3
2016-08-09T01:42:48.713Z,66.2
2016-08-09T01:42:59.951Z,66.2
2016-08-09T01:43:10.461Z,66.4
2016-08-09T01:43:21.700Z,66.2
2016-08-09T01:43:32.211Z,66.2
2016-08-09T01:43:43.452Z,66.4
2016-08-09T01:43:54.689Z,66.4
2016-08-09T01:44:05.200Z,66.6
2016-08-09T01:44:16.442Z,66.4
2016-08-09T01:44:27.690Z,66.9
2016-08-09T01:44:38.923Z,66.9
2016-08-09T01:44:50.164Z,66.9
2016-08-09T01:45:00.668Z,66.8
2016-08-09T01:45:11.914Z,66.9
2016-08-09T01:45:23.152Z,66.8
2016-08-09T01:45:34.393Z,66.9
2016-08-09T01:45:45.635Z,66.8
2016-08-09T01:45:56.870Z,66.8
2016-08-09T01:46:08.111Z,66.9
2016-08-09T01:46:19.360Z,67
2016-08-09T01:46:30.599Z,66.8
2016-08-09T01:46:41.839Z,67
2016-08-09T01:46:53.079Z,66.8
2016-08-09T01:47:04.368Z,66.9
2016-08-09T01:47:27.560Z,66.8
2016-08-09T01:47:39.864Z,66.9
2016-08-09T01:47:51.102Z,66.7
2016-08-09T01:48:02.339Z,66.7
2016-08-09T01:48:13.583Z,66.9
2016-08-09T01:48:24.088Z,66.8
2016-08-09T01:48:35.326Z,66.8
2016-08-09T01:48:45.839Z,66.6
2016-08-09T01:48:57.076Z,66.7
2016-08-09T01:49:08.316Z,66.8
2016-08-09T01:49:19.554Z,66.8
2016-08-09T01:49:30.070Z,66.5
2016-08-09T01:49:41.313Z,66.6
2016-08-09T01:49:52.557Z,66.7
2016-08-09T01:50:03.793Z,66.7
2016-08-09T01:50:15.040Z,66.8
2016-08-09T01:50:26.294Z,66.9
2016-08-09T01:50:37.551Z,66.8
2016-08-09T01:50:48.783Z,67
2016-08-09T01:51:00.021Z,67.2
2016-08-09T01:51:11.265Z,66.9
2016-08-09T01:51:22.504Z,67
2016-08-09T01:51:33.742Z,66.9
2016-08-09T01:51:44.981Z,66.9
2016-08-09T01:51:56.222Z,66.9
2016-08-09T01:52:07.465Z,66.8
2016-08-09T01:52:17.981Z,66.8
2016-08-09T01:52:29.219Z,66.7
2016-08-09T01:52:40.476Z,67
2016-08-09T01:52:50.987Z,66.7
2016-08-09T01:53:02.231Z,67.2
2016-08-09T01:53:12.734Z,67.3
2016-08-09T01:53:23.975Z,67.4
2016-08-09T01:53:35.214Z,66.9
2016-08-09T01:53:46.449Z,67
2016-08-09T01:53:56.967Z,67.4
2016-08-09T01:54:07.476Z,67.1
2016-08-09T01:54:18.709Z,67.4
2016-08-09T01:54:29.949Z,67.3
2016-08-09T01:54:40.466Z,67.2
2016-08-09T01:54:51.760Z,67.3
2016-08-09T01:55:02.999Z,66.8
2016-08-09T01:55:14.235Z,66.8
2016-08-09T01:55:25.480Z,67.3
2016-08-09T01:55:36.715Z,67.3
2016-08-09T01:55:47.961Z,67.2
2016-08-09T01:55:58.461Z,67.3
2016-08-09T01:56:09.700Z,67.3
2016-08-09T01:56:20.946Z,67.4
2016-08-09T01:56:32.188Z,67.4
2016-08-09T01:56:43.427Z,67.4
2016-08-09T01:56:54.669Z,67.4
2016-08-09T01:57:05.915Z,67.5
2016-08-09T01:57:17.152Z,67.2
2016-08-09T01:57:27.671Z,67
2016-08-09T01:57:38.183Z,67
2016-08-09T01:57:49.424Z,67.2
2016-08-09T01:58:00.670Z,67.3
2016-08-09T01:58:11.906Z,67.2
2016-08-09T01:58:23.144Z,67.3
2016-08-09T01:58:34.385Z,67.2
2016-08-09T01:58:45.620Z,67.3
2016-08-09T01:58:56.863Z,67.1
2016-08-09T01:59:08.105Z,67.2
2016-08-09T01:59:18.610Z,67.3
2016-08-09T01:59:29.845Z,67.2
2016-08-09T01:59:40.360Z,67.3
2016-08-09T01:59:51.601Z,67.1
2016-08-09T02:00:02.845Z,67.1
2016-08-09T02:00:14.086Z,67
2016-08-09T02:00:25.326Z,67.2
2016-08-09T02:00:36.562Z,67.1
2016-08-09T02:00:47.804Z,67.2
2016-08-09T02:00:58.320Z,67.2
2016-08-09T02:01:09.559Z,67.4
2016-08-09T02:01:20.808Z,67.6
2016-08-09T02:01:32.045Z,67.5
2016-08-09T02:01:42.552Z,67.6
2016-08-09T02:01:53.800Z,67.4
2016-08-09T02:02:05.046Z,67.5
2016-08-09T02:02:16.285Z,67.2
2016-08-09T02:02:39.204Z,67.2
2016-08-09T02:02:50.445Z,67.8
2016-08-09T02:03:01.686Z,67.8
2016-08-09T02:03:12.924Z,67.8
2016-08-09T02:03:24.164Z,67.4
2016-08-09T02:03:35.405Z,67.8
2016-08-09T02:03:46.639Z,67.5
2016-08-09T02:03:57.877Z,67.4
2016-08-09T02:04:09.120Z,67.8
2016-08-09T02:04:20.363Z,67.3
2016-08-09T02:04:31.600Z,67.4
2016-08-09T02:04:42.840Z,67.2
2016-08-09T02:04:54.082Z,67.8
2016-08-09T02:05:05.323Z,67.5
2016-08-09T02:05:15.837Z,67.8
2016-08-09T02:05:27.079Z,67.1
2016-08-09T02:05:38.319Z,67.4
2016-08-09T02:05:49.557Z,67.6
2016-08-09T02:06:00.795Z,67.5
2016-08-09T02:06:12.041Z,67.5
2016-08-09T02:06:23.292Z,67.5
2016-08-09T02:06:34.535Z,67.8
2016-08-09T02:06:45.789Z,67.2
2016-08-09T02:06:57.026Z,67.3
2016-08-09T02:07:08.262Z,67.9
2016-08-09T02:07:19.505Z,67.9
2016-08-09T02:07:30.743Z,67.3
2016-08-09T02:07:41.981Z,67.3
2016-08-09T02:07:53.219Z,67.4
2016-08-09T02:08:04.462Z,67.4
2016-08-09T02:08:15.700Z,67.3
2016-08-09T02:08:26.947Z,67.8
2016-08-09T02:08:38.175Z,67.6
2016-08-09T02:08:49.420Z,67.4
2016-08-09T02:09:00.656Z,67.4
2016-08-09T02:09:11.897Z,67.5
2016-08-09T02:09:23.140Z,67.2
2016-08-09T02:09:34.378Z,67.5
2016-08-09T02:09:45.619Z,67.2
2016-08-09T02:09:56.134Z,67.8
2016-08-09T02:10:07.377Z,67.3
2016-08-09T02:10:18.615Z,67.2
2016-08-09T02:10:29.861Z,67.2
2016-08-09T02:10:41.098Z,67.2
2016-08-09T02:10:52.338Z,67.3
2016-08-09T02:11:03.581Z,67.2
2016-08-09T02:11:14.825Z,67.4
2016-08-09T02:11:26.071Z,67.1
2016-08-09T02:11:37.304Z,67.2
2016-08-09T02:11:48.546Z,67.1
2016-08-09T02:11:59.787Z,67.4
2016-08-09T02:12:11.026Z,67.3
2016-08-09T02:12:22.267Z,67.2
2016-08-09T02:12:33.505Z,66.8
2016-08-09T02:12:44.749Z,66.9
2016-08-09T02:12:55.990Z,66.9
2016-08-09T02:13:06.509Z,66.9
2016-08-09T02:13:17.752Z,66.9
2016-08-09T02:13:28.996Z,66.9
2016-08-09T02:13:40.233Z,66.7
2016-08-09T02:13:51.471Z,66.6
2016-08-09T02:14:02.714Z,66.8
2016-08-09T02:14:13.229Z,67
2016-08-09T02:14:24.468Z,67
2016-08-09T02:14:35.712Z,66.9
2016-08-09T02:14:46.959Z,66.9
2016-08-09T02:14:58.198Z,66.7
2016-08-09T02:15:09.436Z,66.9
2016-08-09T02:15:20.675Z,66.6
2016-08-09T02:15:31.917Z,66.8
2016-08-09T02:15:42.434Z,66.8
2016-08-09T02:15:53.667Z,66.8
2016-08-09T02:16:04.908Z,66.7
2016-08-09T02:16:16.160Z,66.8
2016-08-09T02:16:27.400Z,66.7
2016-08-09T02:16:38.651Z,66.8
2016-08-09T02:16:49.896Z,66.5
2016-08-09T02:17:01.138Z,66.7
2016-08-09T02:17:12.377Z,66.8
2016-08-09T02:17:34.840Z,66.8
2016-08-09T02:17:46.084Z,66.8
2016-08-09T02:17:57.323Z,66.8
2016-08-09T02:18:08.567Z,66.8
2016-08-09T02:18:19.812Z,66.9
2016-08-09T02:18:31.057Z,66.9
2016-08-09T02:18:42.292Z,67.1
2016-08-09T02:18:53.532Z,67.2
2016-08-09T02:19:04.778Z,67
2016-08-09T02:19:16.011Z,66.8
2016-08-09T02:19:26.523Z,66.7
2016-08-09T02:19:37.765Z,66.9
2016-08-09T02:19:49.004Z,66.9
2016-08-09T02:20:00.244Z,66.9
2016-08-09T02:20:11.485Z,66.9
2016-08-09T02:20:21.991Z,66.7
2016-08-09T02:20:33.234Z,66.9
2016-08-09T02:20:43.742Z,67
2016-08-09T02:20:54.252Z,66.9
2016-08-09T02:21:05.503Z,66.7
2016-08-09T02:21:16.741Z,67
2016-08-09T02:21:27.980Z,67
2016-08-09T02:21:38.497Z,66.8
2016-08-09T02:21:49.731Z,66.8
2016-08-09T02:22:00.972Z,66.9
2016-08-09T02:22:12.209Z,66.9
2016-08-09T02:22:22.725Z,66.7
2016-08-09T02:22:33.967Z,66.7
2016-08-09T02:22:45.210Z,67
2016-08-09T02:22:56.449Z,67
2016-08-09T02:23:07.691Z,66.8
2016-08-09T02:23:18.937Z,66.9
2016-08-09T02:23:30.170Z,66.9
2016-08-09T02:23:40.680Z,66.9
2016-08-09T02:23:51.919Z,66.9
2016-08-09T02:24:02.430Z,66.8
2016-08-09T02:24:12.940Z,66.7
2016-08-09T02:24:24.177Z,66.9
2016-08-09T02:24:35.421Z,66.7
2016-08-09T02:24:46.664Z,66.9
2016-08-09T02:24:57.908Z,66.7
2016-08-09T02:25:09.150Z,66.9
2016-08-09T02:25:20.391Z,67
2016-08-09T02:25:31.635Z,66.7
2016-08-09T02:25:42.877Z,66.9
2016-08-09T02:25:54.122Z,66.9
2016-08-09T02:26:05.359Z,66.9
2016-08-09T02:26:16.603Z,66.8
2016-08-09T02:26:27.847Z,67.1
2016-08-09T02:26:39.084Z,67.2
2016-08-09T02:26:50.332Z,67.2
2016-08-09T02:27:00.847Z,67.2
2016-08-09T02:27:11.352Z,66.7
2016-08-09T02:27:21.859Z,67.3
2016-08-09T02:27:33.101Z,67.3
2016-08-09T02:27:44.342Z,67.2
2016-08-09T02:27:55.579Z,66.9
2016-08-09T02:28:06.087Z,67.4
2016-08-09T02:28:17.326Z,66.9
2016-08-09T02:28:27.839Z,67.3
2016-08-09T02:28:40.873Z,67
2016-08-09T02:28:52.112Z,67.1
2016-08-09T02:29:03.357Z,67.2
2016-08-09T02:29:14.599Z,67.2
2016-08-09T02:29:25.839Z,67.8
2016-08-09T02:29:37.084Z,67.3
2016-08-09T02:29:48.323Z,67.9
2016-08-09T02:29:59.584Z,67.8
2016-08-09T02:30:10.819Z,67.5
2016-08-09T02:30:22.061Z,67.2
2016-08-09T02:30:33.301Z,67.1
2016-08-09T02:30:44.544Z,67.3
2016-08-09T02:30:55.783Z,67.4
2016-08-09T02:31:07.022Z,67.4
2016-08-09T02:31:18.263Z,67.6